createdAt,value
2023-04-11T00:00:11.408Z,100.00
2023-04-11T00:02:41.569Z,100.00
2023-04-11T00:05:30.600Z,100.00
2023-04-11T00:08:16.942Z,100.00
2023-04-11T00:10:57.278Z,100.00
2023-04-11T00:13:53.845Z,100.00
2023-04-11T00:16:47.240Z,100.00
2023-04-11T00:19:55.288Z,100.00
2023-04-11T00:22:43.382Z,100.00
2023-04-11T00:25:10.401Z,100.00
2023-04-11T00:27:37.401Z,100.00
2023-04-11T00:30:07.137Z,100.00
2023-04-11T00:32:34.183Z,100.00
2023-04-11T00:35:01.128Z,100.00
2023-04-11T00:37:28.041Z,100.00
2023-04-11T00:39:56.167Z,100.00
2023-04-11T00:42:23.345Z,100.00
2023-04-11T00:44:50.552Z,100.00
2023-04-11T00:47:17.458Z,100.00
2023-04-11T00:49:44.669Z,100.00
2023-04-11T00:52:13.039Z,100.00
2023-04-11T00:54:40.654Z,100.00
2023-04-11T00:57:08.581Z,100.00
2023-04-11T00:59:35.801Z,100.00
2023-04-11T01:02:02.760Z,100.00
2023-04-11T01:04:30.149Z,100.00
2023-04-11T01:07:19.423Z,100.00
2023-04-11T01:10:14.149Z,100.00
2023-04-11T01:13:02.360Z,100.00
2023-04-11T01:15:49.764Z,100.00
2023-04-11T01:18:36.711Z,100.00
2023-04-11T01:21:23.302Z,100.00
2023-04-11T01:24:03.919Z,100.00
2023-04-11T01:26:31.227Z,100.00
2023-04-11T01:28:58.266Z,100.00
2023-04-11T01:31:25.229Z,100.00
2023-04-11T01:33:52.128Z,100.00
2023-04-11T01:36:19.380Z,100.00
2023-04-11T01:38:46.342Z,100.00
2023-04-11T01:41:16.582Z,100.00
2023-04-11T01:43:44.482Z,100.00
2023-04-11T01:46:11.836Z,100.00
2023-04-11T01:48:39.288Z,100.00
2023-04-11T01:51:07.719Z,100.00
2023-04-11T01:53:34.667Z,100.00
2023-04-11T01:56:01.663Z,100.00
2023-04-11T01:58:28.581Z,100.00
2023-04-11T02:00:55.571Z,100.00
2023-04-11T02:03:23.164Z,100.00
2023-04-11T02:05:50.311Z,100.00
2023-04-11T02:08:17.250Z,100.00
2023-04-11T02:10:44.193Z,100.00
2023-04-11T02:13:11.150Z,100.00
2023-04-11T02:15:38.174Z,100.00
2023-04-11T02:18:07.286Z,100.00
2023-04-11T02:20:34.190Z,100.00
2023-04-11T02:23:04.842Z,100.00
2023-04-11T02:25:31.761Z,100.00
2023-04-11T02:27:58.662Z,100.00
2023-04-11T02:30:25.823Z,100.00
2023-04-11T02:32:53.157Z,100.00
2023-04-11T02:35:20.236Z,100.00
2023-04-11T02:37:47.139Z,100.00
2023-04-11T02:40:14.080Z,100.00
2023-04-11T02:42:43.430Z,100.00
2023-04-11T02:45:11.932Z,100.00
2023-04-11T02:47:39.957Z,100.00
2023-04-11T02:50:07.585Z,100.00
2023-04-11T02:52:34.643Z,100.00
2023-04-11T02:55:01.741Z,100.00
2023-04-11T02:57:28.688Z,100.00
2023-04-11T02:59:55.548Z,100.00
2023-04-11T03:02:23.877Z,100.00
2023-04-11T03:04:51.519Z,100.00
2023-04-11T03:07:18.417Z,100.00
2023-04-11T03:09:45.369Z,100.00
2023-04-11T03:12:12.340Z,100.00
2023-04-11T03:14:39.217Z,100.00
2023-04-11T03:17:06.355Z,100.00
2023-04-11T03:19:33.284Z,100.00
2023-04-11T03:22:01.850Z,100.00
2023-04-11T03:24:28.756Z,100.00
2023-04-11T03:26:56.222Z,100.00
2023-04-11T03:29:23.393Z,100.00
2023-04-11T03:31:51.073Z,100.00
2023-04-11T03:34:18.388Z,100.00
2023-04-11T03:36:45.304Z,100.00
2023-04-11T03:39:12.219Z,100.00
2023-04-11T03:41:39.259Z,100.00
2023-04-11T03:44:06.228Z,100.00
2023-04-11T03:46:33.190Z,100.00
2023-04-11T03:49:00.140Z,100.00
2023-04-11T03:51:27.370Z,100.00
2023-04-11T03:53:54.386Z,100.00
2023-04-11T03:56:21.711Z,100.00
2023-04-11T03:58:48.607Z,100.00
2023-04-11T04:01:15.554Z,100.00
2023-04-11T04:03:42.848Z,100.00
2023-04-11T04:06:10.207Z,100.00
2023-04-11T04:08:37.076Z,100.00
2023-04-11T04:11:04.094Z,100.00
2023-04-11T04:13:31.168Z,100.00
2023-04-11T04:15:58.631Z,100.00
2023-04-11T04:18:25.750Z,100.00
2023-04-11T04:20:52.865Z,100.00
2023-04-11T04:23:19.765Z,100.00
2023-04-11T04:25:51.470Z,100.00
2023-04-11T04:28:22.723Z,100.00
2023-04-11T04:30:50.440Z,100.00
2023-04-11T04:33:18.929Z,100.00
2023-04-11T04:35:45.903Z,100.00
2023-04-11T04:38:18.140Z,100.00
2023-04-11T04:40:45.284Z,100.00
2023-04-11T04:43:18.915Z,100.00
2023-04-11T04:45:46.039Z,100.00
2023-04-11T04:48:17.510Z,100.00
2023-04-11T04:50:45.916Z,100.00
2023-04-11T04:53:12.934Z,100.00
2023-04-11T04:55:39.879Z,100.00
2023-04-11T04:58:06.792Z,100.00
2023-04-11T05:00:33.849Z,100.00
2023-04-11T05:03:00.939Z,100.00
2023-04-11T05:05:27.881Z,100.00
2023-04-11T05:07:54.781Z,100.00
2023-04-11T05:10:21.712Z,100.00
2023-04-11T05:12:48.627Z,100.00
2023-04-11T05:15:15.697Z,100.00
2023-04-11T05:17:43.142Z,100.00
2023-04-11T05:20:10.743Z,100.00
2023-04-11T05:22:38.283Z,100.00
2023-04-11T05:25:06.056Z,100.00
2023-04-11T05:27:32.928Z,100.00
2023-04-11T05:30:01.469Z,100.00
2023-04-11T05:32:28.505Z,100.00
2023-04-11T05:34:59.053Z,100.00
2023-04-11T05:37:26.494Z,100.00
2023-04-11T05:39:53.492Z,100.00
2023-04-11T05:42:20.470Z,100.00
2023-04-11T05:44:47.397Z,100.00
2023-04-11T05:47:14.358Z,100.00
2023-04-11T05:49:41.381Z,100.00
2023-04-11T05:52:08.364Z,100.00
2023-04-11T05:54:37.086Z,100.00
2023-04-11T05:57:04.512Z,97.35
2023-04-11T05:59:32.156Z,95.98
2023-04-11T06:01:59.631Z,92.09
2023-04-11T06:04:26.951Z,88.16
2023-04-11T06:06:54.336Z,91.26
2023-04-11T06:09:21.375Z,84.26
2023-04-11T06:11:48.252Z,84.61
2023-04-11T06:14:15.286Z,84.69
2023-04-11T06:16:42.774Z,81.03
2023-04-11T06:19:09.738Z,80.23
2023-04-11T06:21:36.625Z,81.20
2023-04-11T06:24:08.444Z,77.47
2023-04-11T06:26:35.427Z,76.31
2023-04-11T06:29:06.739Z,79.90
2023-04-11T06:31:34.427Z,84.07
2023-04-11T06:34:02.275Z,80.70
2023-04-11T06:36:30.505Z,78.43
2023-04-11T06:38:57.492Z,78.89
2023-04-11T06:41:24.581Z,81.85
2023-04-11T06:43:51.583Z,80.91
2023-04-11T06:46:18.622Z,81.20
2023-04-11T06:48:45.657Z,80.34
2023-04-11T06:51:12.653Z,81.77
2023-04-11T06:53:39.581Z,79.53
2023-04-11T06:56:07.135Z,80.61
2023-04-11T06:58:34.025Z,81.36
2023-04-11T07:01:02.166Z,82.80
2023-04-11T07:03:31.240Z,82.57
2023-04-11T07:05:58.522Z,83.53
2023-04-11T07:08:25.558Z,82.69
2023-04-11T07:10:52.671Z,83.84
2023-04-11T07:13:21.526Z,83.87
2023-04-11T07:15:50.687Z,84.70
2023-04-11T07:18:17.772Z,86.29
2023-04-11T07:20:44.817Z,84.40
2023-04-11T07:23:11.851Z,82.42
2023-04-11T07:25:39.603Z,80.28
2023-04-11T07:28:09.533Z,80.27
2023-04-11T07:30:36.688Z,79.79
2023-04-11T07:33:04.429Z,80.99
2023-04-11T07:35:33.875Z,81.22
2023-04-11T07:38:01.768Z,79.54
2023-04-11T07:40:28.995Z,80.33
2023-04-11T07:42:55.944Z,79.16
2023-04-11T07:45:23.061Z,80.47
2023-04-11T07:47:50.055Z,78.45
2023-04-11T07:50:17.000Z,77.59
2023-04-11T07:52:43.962Z,77.78
2023-04-11T07:55:11.293Z,77.86
2023-04-11T07:57:38.271Z,78.84
2023-04-11T08:00:05.749Z,77.24
2023-04-11T08:02:33.405Z,76.85
2023-04-11T08:05:00.699Z,76.90
2023-04-11T08:07:28.122Z,77.95
2023-04-11T08:09:55.111Z,75.64
2023-04-11T08:12:22.324Z,73.72
2023-04-11T08:14:49.257Z,72.99
2023-04-11T08:17:27.187Z,73.54
2023-04-11T08:19:57.921Z,76.32
2023-04-11T08:22:24.874Z,75.06
2023-04-11T08:24:52.443Z,75.80
2023-04-11T08:27:19.340Z,73.44
2023-04-11T08:29:46.205Z,73.39
2023-04-11T08:32:13.126Z,74.06
2023-04-11T08:34:40.036Z,74.02
2023-04-11T08:37:08.371Z,74.30
2023-04-11T08:39:35.239Z,73.31
2023-04-11T08:42:02.527Z,71.79
2023-04-11T08:44:29.545Z,72.32
2023-04-11T08:46:56.467Z,70.97
2023-04-11T08:49:23.424Z,68.27
2023-04-11T08:51:54.257Z,68.28
2023-04-11T08:54:21.432Z,66.37
2023-04-11T08:56:48.334Z,66.73
2023-04-11T08:59:15.236Z,66.17
2023-04-11T09:01:42.858Z,63.84
2023-04-11T09:04:11.670Z,64.81
2023-04-11T09:06:40.483Z,62.64
2023-04-11T09:09:08.435Z,63.60
2023-04-11T09:11:56.345Z,59.90
2023-04-11T09:14:27.272Z,58.94
2023-04-11T09:16:57.006Z,58.83
2023-04-11T09:19:29.464Z,62.14
2023-04-11T09:22:01.588Z,60.41
2023-04-11T09:24:33.935Z,63.85
2023-04-11T09:27:28.156Z,62.33
2023-04-11T09:29:55.082Z,57.80
2023-04-11T09:32:35.307Z,59.45
2023-04-11T09:35:12.451Z,59.79
2023-04-11T09:37:50.598Z,61.16
2023-04-11T09:40:20.356Z,61.71
2023-04-11T09:42:48.863Z,59.58
2023-04-11T09:45:15.810Z,58.36
2023-04-11T09:47:44.586Z,54.53
2023-04-11T09:50:12.961Z,56.82
2023-04-11T09:52:43.816Z,57.74
2023-04-11T09:55:21.520Z,56.29
2023-04-11T09:57:50.226Z,55.13
2023-04-11T10:00:22.608Z,54.26
2023-04-11T10:02:55.016Z,52.25
2023-04-11T10:05:27.246Z,51.78
2023-04-11T10:08:02.712Z,51.74
2023-04-11T10:10:30.352Z,51.96
2023-04-11T10:12:57.270Z,52.77
2023-04-11T10:15:24.329Z,51.46
2023-04-11T10:18:11.883Z,53.37
2023-04-11T10:20:47.260Z,49.70
2023-04-11T10:23:15.138Z,49.77
2023-04-11T10:25:51.197Z,50.08
2023-04-11T10:28:40.916Z,48.52
2023-04-11T10:31:15.929Z,50.43
2023-04-11T10:34:14.169Z,49.02
2023-04-11T10:37:08.896Z,51.10
2023-04-11T10:39:53.686Z,49.48
2023-04-11T10:42:57.659Z,47.80
2023-04-11T10:45:27.447Z,52.68
2023-04-11T10:47:57.580Z,52.94
2023-04-11T10:50:27.338Z,51.64
2023-04-11T10:52:58.995Z,51.17
2023-04-11T10:55:27.695Z,51.71
2023-04-11T10:58:14.265Z,52.29
2023-04-11T11:00:48.316Z,53.10
2023-04-11T11:03:23.483Z,54.11
2023-04-11T11:06:03.916Z,49.36
2023-04-11T11:08:33.929Z,50.92
2023-04-11T11:11:09.898Z,50.97
2023-04-11T11:13:40.379Z,49.44
2023-04-11T11:16:14.816Z,49.62
2023-04-11T11:18:45.450Z,48.83
2023-04-11T11:21:17.016Z,47.73
2023-04-11T11:23:55.662Z,49.77
2023-04-11T11:26:23.186Z,49.94
2023-04-11T11:28:50.151Z,49.55
2023-04-11T11:31:17.292Z,49.43
2023-04-11T11:33:44.289Z,47.58
2023-04-11T11:36:11.981Z,47.71
2023-04-11T11:38:39.397Z,49.76
2023-04-11T11:41:06.995Z,46.90
2023-04-11T11:43:37.216Z,48.04
2023-04-11T11:46:10.233Z,49.65
2023-04-11T11:48:37.460Z,47.86
2023-04-11T11:51:04.726Z,47.23
2023-04-11T11:53:31.661Z,50.32
2023-04-11T11:55:59.610Z,50.05
2023-04-11T11:58:26.729Z,49.46
2023-04-11T12:00:54.557Z,50.80
2023-04-11T12:03:24.737Z,49.42
2023-04-11T12:05:56.309Z,50.43
2023-04-11T12:08:25.225Z,50.76
2023-04-11T12:10:52.731Z,53.72
2023-04-11T12:13:20.927Z,50.75
2023-04-11T12:16:01.747Z,51.63
2023-04-11T12:18:29.109Z,49.96
2023-04-11T12:20:56.299Z,50.50
2023-04-11T12:23:23.495Z,48.85
2023-04-11T12:25:50.834Z,47.86
2023-04-11T12:28:17.777Z,47.74
2023-04-11T12:30:44.756Z,48.46
2023-04-11T12:33:11.752Z,48.22
2023-04-11T12:35:38.732Z,47.90
2023-04-11T12:38:06.868Z,48.86
2023-04-11T12:40:33.937Z,51.44
2023-04-11T12:43:01.182Z,47.99
2023-04-11T12:45:28.167Z,45.07
2023-04-11T12:47:55.252Z,46.77
2023-04-11T12:50:24.275Z,45.60
2023-04-11T12:52:51.808Z,45.91
2023-04-11T12:55:18.903Z,43.54
2023-04-11T12:57:46.189Z,42.97
2023-04-11T13:00:14.044Z,43.87
2023-04-11T13:02:44.623Z,44.06
2023-04-11T13:05:15.567Z,43.57
2023-04-11T13:07:45.417Z,44.34
2023-04-11T13:10:14.310Z,44.83
2023-04-11T13:12:45.371Z,45.60
2023-04-11T13:15:14.497Z,43.74
2023-04-11T13:17:41.600Z,43.28
2023-04-11T13:20:10.798Z,44.84
2023-04-11T13:22:38.831Z,44.16
2023-04-11T13:25:07.110Z,44.58
2023-04-11T13:27:35.161Z,43.61
2023-04-11T13:30:03.850Z,45.05
2023-04-11T13:32:31.425Z,43.88
2023-04-11T13:34:58.577Z,41.84
2023-04-11T13:37:25.444Z,43.39
2023-04-11T13:39:52.356Z,43.30
2023-04-11T13:42:19.265Z,43.21
2023-04-11T13:44:46.194Z,44.00
2023-04-11T13:47:13.153Z,42.00
2023-04-11T13:49:40.025Z,44.06
2023-04-11T13:52:06.998Z,44.53
2023-04-11T13:54:33.913Z,44.00
2023-04-11T13:57:01.274Z,45.91
2023-04-11T13:59:28.327Z,44.15
2023-04-11T14:01:55.260Z,44.14
2023-04-11T14:04:22.737Z,44.44
2023-04-11T14:06:49.810Z,45.34
2023-04-11T14:09:16.772Z,44.73
2023-04-11T14:11:43.819Z,44.83
2023-04-11T14:14:10.887Z,47.21
2023-04-11T14:16:37.836Z,46.22
2023-04-11T14:19:04.791Z,44.79
2023-04-11T14:21:32.032Z,45.94
2023-04-11T14:23:59.425Z,45.56
2023-04-11T14:26:26.858Z,45.77
2023-04-11T14:28:54.063Z,45.21
2023-04-11T14:31:21.048Z,46.23
2023-04-11T14:33:48.024Z,48.07
2023-04-11T14:36:15.250Z,49.54
2023-04-11T14:38:42.336Z,50.52
2023-04-11T14:41:10.630Z,50.98
2023-04-11T14:43:37.735Z,52.28
2023-04-11T14:46:06.000Z,52.78
2023-04-11T14:48:32.952Z,52.62
2023-04-11T14:51:03.287Z,51.62
2023-04-11T14:53:30.203Z,51.46
2023-04-11T14:55:57.097Z,51.22
2023-04-11T14:58:24.084Z,52.41
2023-04-11T15:00:51.726Z,51.50
2023-04-11T15:03:18.789Z,51.82
2023-04-11T15:05:45.844Z,52.33
2023-04-11T15:08:12.791Z,54.16
2023-04-11T15:10:39.703Z,54.28
2023-04-11T15:13:09.157Z,54.27
2023-04-11T15:15:37.079Z,55.38
2023-04-11T15:18:22.183Z,57.47
2023-04-11T15:20:49.898Z,59.02
2023-04-11T15:23:18.210Z,59.07
2023-04-11T15:25:46.734Z,60.80
2023-04-11T15:28:13.696Z,62.06
2023-04-11T15:30:52.047Z,63.79
2023-04-11T15:33:24.489Z,63.63
2023-04-11T15:35:54.038Z,64.96
2023-04-11T15:38:22.057Z,65.91
2023-04-11T15:40:56.800Z,66.50
2023-04-11T15:43:24.429Z,68.75
2023-04-11T15:45:55.022Z,71.09
2023-04-11T15:48:21.958Z,72.45
2023-04-11T15:50:49.015Z,73.20
2023-04-11T15:53:16.193Z,72.56
2023-04-11T15:55:43.869Z,73.41
2023-04-11T15:58:10.968Z,73.96
2023-04-11T16:00:39.018Z,74.03
2023-04-11T16:03:06.444Z,74.73
2023-04-11T16:05:33.894Z,74.41
2023-04-11T16:08:00.923Z,74.72
2023-04-11T16:10:28.126Z,74.89
2023-04-11T16:12:55.070Z,75.20
2023-04-11T16:15:22.081Z,76.26
2023-04-11T16:17:49.769Z,76.79
2023-04-11T16:20:57.035Z,78.16
2023-04-11T16:23:24.810Z,79.07
2023-04-11T16:25:52.028Z,80.78
2023-04-11T16:28:18.992Z,82.00
2023-04-11T16:30:45.993Z,82.83
2023-04-11T16:33:13.210Z,82.85
2023-04-11T16:35:40.106Z,82.61
2023-04-11T16:38:07.306Z,82.40
2023-04-11T16:40:35.216Z,82.44
2023-04-11T16:43:02.222Z,83.06
2023-04-11T16:45:29.392Z,82.94
2023-04-11T16:47:56.430Z,82.08
2023-04-11T16:50:23.672Z,83.05
2023-04-11T16:52:50.597Z,84.02
2023-04-11T16:55:18.245Z,83.30
2023-04-11T16:57:45.133Z,83.89
2023-04-11T17:00:16.414Z,84.50
2023-04-11T17:02:43.683Z,87.27
2023-04-11T17:05:10.875Z,91.23
2023-04-11T17:07:38.006Z,93.59
2023-04-11T17:10:05.803Z,95.27
2023-04-11T17:12:32.777Z,96.09
2023-04-11T17:15:02.890Z,98.25
2023-04-11T17:17:29.885Z,98.82
2023-04-11T17:19:57.257Z,98.66
2023-04-11T17:22:24.117Z,100.00
2023-04-11T17:24:51.190Z,100.00
2023-04-11T17:27:18.074Z,100.00
2023-04-11T17:29:45.016Z,100.00
2023-04-11T17:32:12.236Z,100.00
2023-04-11T17:34:39.182Z,100.00
2023-04-11T17:37:06.780Z,100.00
2023-04-11T17:39:33.691Z,100.00
2023-04-11T17:42:01.892Z,100.00
2023-04-11T17:44:28.798Z,100.00
2023-04-11T17:46:55.950Z,100.00
2023-04-11T17:49:25.091Z,100.00
2023-04-11T17:52:10.280Z,100.00
2023-04-11T17:54:37.899Z,100.00
2023-04-11T17:57:04.841Z,100.00
2023-04-11T17:59:33.616Z,100.00
2023-04-11T18:02:01.173Z,100.00
2023-04-11T18:04:28.207Z,100.00
2023-04-11T18:06:56.486Z,100.00
2023-04-11T18:09:26.869Z,100.00
2023-04-11T18:11:53.903Z,100.00
2023-04-11T18:14:20.861Z,100.00
2023-04-11T18:16:47.804Z,100.00
2023-04-11T18:19:14.966Z,100.00
2023-04-11T18:21:41.875Z,100.00
2023-04-11T18:24:09.479Z,100.00
2023-04-11T18:26:36.462Z,100.00
2023-04-11T18:29:04.233Z,100.00
2023-04-11T18:31:35.312Z,100.00
2023-04-11T18:34:03.375Z,100.00
2023-04-11T18:36:31.080Z,100.00
2023-04-11T18:38:58.699Z,100.00
2023-04-11T18:41:25.793Z,100.00
2023-04-11T18:43:52.771Z,100.00
2023-04-11T18:46:19.722Z,100.00
2023-04-11T18:48:46.688Z,100.00
2023-04-11T18:51:13.654Z,100.00
2023-04-11T18:53:41.163Z,100.00
2023-04-11T18:56:08.356Z,100.00
2023-04-11T18:58:39.986Z,100.00
2023-04-11T19:01:15.548Z,100.00
2023-04-11T19:03:44.715Z,100.00
2023-04-11T19:06:11.867Z,100.00
2023-04-11T19:08:53.851Z,100.00
2023-04-11T19:11:20.771Z,100.00
2023-04-11T19:13:48.274Z,100.00
2023-04-11T19:16:15.428Z,100.00
2023-04-11T19:18:42.383Z,100.00
2023-04-11T19:21:09.299Z,100.00
2023-04-11T19:23:36.235Z,100.00
2023-04-11T19:26:03.269Z,100.00
2023-04-11T19:28:30.262Z,100.00
2023-04-11T19:30:57.216Z,100.00
2023-04-11T19:33:26.211Z,100.00
2023-04-11T19:35:54.517Z,100.00
2023-04-11T19:38:22.023Z,100.00
2023-04-11T19:40:49.015Z,100.00
2023-04-11T19:43:15.979Z,100.00
2023-04-11T19:45:44.334Z,100.00
2023-04-11T19:48:11.939Z,100.00
2023-04-11T19:50:38.879Z,100.00
2023-04-11T19:53:05.840Z,100.00
2023-04-11T19:55:32.798Z,100.00
2023-04-11T19:57:59.759Z,100.00
2023-04-11T20:00:28.910Z,100.00
2023-04-11T20:02:55.875Z,100.00
2023-04-11T20:05:24.027Z,100.00
2023-04-11T20:07:51.058Z,100.00
2023-04-11T20:10:18.069Z,100.00
2023-04-11T20:12:44.985Z,100.00
2023-04-11T20:15:12.184Z,100.00
2023-04-11T20:17:39.212Z,100.00
2023-04-11T20:20:08.869Z,100.00
2023-04-11T20:22:38.566Z,100.00
2023-04-11T20:25:11.946Z,100.00
2023-04-11T20:27:39.737Z,100.00
2023-04-11T20:30:09.853Z,100.00
2023-04-11T20:32:37.633Z,100.00
2023-04-11T20:35:05.391Z,100.00
2023-04-11T20:37:34.654Z,100.00
2023-04-11T20:40:02.493Z,100.00
2023-04-11T20:42:31.897Z,100.00
2023-04-11T20:45:07.068Z,100.00
2023-04-11T20:47:34.294Z,100.00
2023-04-11T20:50:04.260Z,100.00
2023-04-11T20:52:32.926Z,100.00
2023-04-11T20:55:00.515Z,100.00
2023-04-11T20:57:30.168Z,100.00
2023-04-11T20:59:58.253Z,100.00
2023-04-11T21:02:26.415Z,100.00
2023-04-11T21:04:54.472Z,100.00
2023-04-11T21:07:21.704Z,100.00
2023-04-11T21:09:49.716Z,100.00
2023-04-11T21:12:16.639Z,100.00
2023-04-11T21:14:43.589Z,100.00
2023-04-11T21:17:10.790Z,100.00
2023-04-11T21:19:38.199Z,100.00
2023-04-11T21:22:05.814Z,100.00
2023-04-11T21:24:34.432Z,100.00
2023-04-11T21:27:02.207Z,100.00
2023-04-11T21:29:29.574Z,100.00
2023-04-11T21:31:56.545Z,100.00
2023-04-11T21:34:23.524Z,100.00
2023-04-11T21:36:50.743Z,100.00
2023-04-11T21:39:17.684Z,100.00
2023-04-11T21:41:44.654Z,100.00
2023-04-11T21:44:13.467Z,100.00
2023-04-11T21:46:40.818Z,100.00
2023-04-11T21:49:07.828Z,100.00
2023-04-11T21:51:34.820Z,100.00
2023-04-11T21:54:04.623Z,100.00
2023-04-11T21:56:31.553Z,100.00
2023-04-11T21:58:58.475Z,100.00
2023-04-11T22:01:25.439Z,100.00
2023-04-11T22:03:52.586Z,100.00
2023-04-11T22:06:19.732Z,100.00
2023-04-11T22:08:50.713Z,100.00
2023-04-11T22:11:18.362Z,100.00
2023-04-11T22:13:46.889Z,100.00
2023-04-11T22:16:14.456Z,100.00
2023-04-11T22:18:47.490Z,100.00
2023-04-11T22:21:21.760Z,100.00
2023-04-11T22:23:56.228Z,100.00
2023-04-11T22:26:34.269Z,100.00
2023-04-11T22:29:06.026Z,100.00
2023-04-11T22:31:38.610Z,100.00
2023-04-11T22:34:10.342Z,100.00
2023-04-11T22:36:37.461Z,100.00
2023-04-11T22:39:08.567Z,100.00
2023-04-11T22:41:38.876Z,100.00
2023-04-11T22:44:10.878Z,100.00
2023-04-11T22:46:39.157Z,100.00
2023-04-11T22:49:06.852Z,100.00
2023-04-11T22:51:33.776Z,100.00
2023-04-11T22:54:01.361Z,100.00
2023-04-11T22:56:28.369Z,100.00
2023-04-11T22:58:55.602Z,100.00
2023-04-11T23:01:22.731Z,100.00
2023-04-11T23:03:49.973Z,100.00
2023-04-11T23:06:17.540Z,100.00
2023-04-11T23:08:44.449Z,100.00
2023-04-11T23:11:11.397Z,100.00
2023-04-11T23:13:38.365Z,100.00
2023-04-11T23:16:06.283Z,100.00
2023-04-11T23:18:33.204Z,100.00
2023-04-11T23:21:00.143Z,100.00
2023-04-11T23:23:28.076Z,100.00
2023-04-11T23:25:54.985Z,100.00
2023-04-11T23:28:21.899Z,100.00
2023-04-11T23:30:49.020Z,100.00
2023-04-11T23:33:16.645Z,100.00
2023-04-11T23:35:43.630Z,100.00
2023-04-11T23:38:10.797Z,100.00
2023-04-11T23:40:38.575Z,100.00
2023-04-11T23:43:05.559Z,100.00
2023-04-11T23:45:33.356Z,100.00
2023-04-11T23:48:00.373Z,100.00
2023-04-11T23:50:27.662Z,100.00
2023-04-11T23:52:55.126Z,100.00
2023-04-11T23:55:22.186Z,100.00
2023-04-11T23:57:49.851Z,100.00
